Nearby METAR Reports

Here are local weather reports from nearby weather stations and airports.

KHFD - Hartford/Brainar, Connecticut, USA
Distance from station: NE 5mi, 8km
Updated: Mon, 12/09/19 3:31pm EST
Light rain, Mist, Overcast
Light rain, Mist, Overcast
 Wind from S
Wind: S 8 mph , 13 km/h
Temperature: 52°F , 11°C
Dew Point: 52°F , 11°C
Humidity: 100%
Barometer: 29.90 inHg , 1012.5 hPa
Summary: Light rain, Mist
Clouds: Overcast
Visibility: 3 miles , 5 km
Cloud details: Mostly cloudy 800 ft
Mostly cloudy 1900 ft
Overcast 6000 ft
2019/12/09 20:31 KHFD 092031Z 19007KT 3SM -RA BR BKN008 BKN019 OVC060 11/11 A2990 RMK AO2 RAB16 P0001 T01110106
KMMK - Meriden, Connecticut, USA
Distance from station: SSW 13mi, 21km
Updated: Mon, 12/09/19 3:14pm EST
Rain, Mist, Overcast
Rain, Mist, Overcast
 Wind from S
Wind: S 7 mph , 11 km/h
Temperature: 54°F , 12°C
Dew Point: 52°F , 11°C
Humidity: 94%
Barometer: 29.92 inHg , 1013.2 hPa
Summary: Rain, Mist
Clouds: Overcast
Visibility: 3 miles , 5 km
Cloud details: Overcast 800 ft
2019/12/09 20:14 KMMK 092014Z AUTO 19006KT 3SM RA BR OVC008 12/11 A2992 RMK AO2 RAB1955 P0001 T01170111
 
KBDL - Windsor Locks, Connecticut, USA
Distance from station: N 17mi, 28km
Updated: Mon, 12/09/19 3:38pm EST
Light rain, Fog, Overcast
Light rain, Fog, Overcast
 Wind from S
Wind: S 9 mph , 15 km/h
Temperature: 46°F , 8°C
Wind Chill: 41°F , 5°C
Dew Point: 45°F , 7°C
Humidity: 93%
Barometer: 29.89 inHg , 1012.2 hPa
Summary: Light rain, Fog
Clouds: Overcast
Visibility: 1/8 mile , 0.2 km
Cloud details: Mostly cloudy 1300 ft
Overcast 7000 ft
2019/12/09 20:38 KBDL 092038Z 18008KT 1/8SM R06/P6000FT -RA FG BKN013 OVC070 08/07 A2989 RMK AO2 TWR VIS 1/4 P0001 T00830072 $
KSNC - Chester, Connecticut, USA
Distance from station: SSE 24mi, 38km
Updated: Mon, 12/09/19 3:35pm EST
Light rain, Overcast
Light rain, Overcast
 Wind from S
Wind: S 9 mph , 15 km/h, Gust: 17 mph , 28 km/h
Temperature: 54°F , 12°C
Dew Point: 54°F , 12°C
Humidity: 100%
Barometer: 29.92 inHg , 1013.2 hPa
Summary: Light rain
Clouds: Overcast
Visibility: 2 miles , 3 km
Cloud details: Overcast 100 ft
2019/12/09 20:35 KSNC 092035Z AUTO 19008G15KT 2SM -RA OVC001 12/12 A2992 RMK AO2
 
KOXC - Oxford/Waterbury, Connecticut, USA
Distance from station: SW 26mi, 42km
Updated: Mon, 12/09/19 3:51pm EST
Light rain, Mist, Overcast
Light rain, Mist, Overcast
 Wind from SSW
Wind: SSW 7 mph , 11 km/h
Temperature: 50°F , 10°C
Wind Chill: 47°F , 8°C
Dew Point: 50°F , 10°C
Humidity: 100%
Barometer: 29.90 inHg , 1012.5 hPa
Summary: Light rain, Mist
Clouds: Overcast
Visibility: 4 miles , 6 km
Cloud details: Mostly cloudy 300 ft
Overcast 5500 ft
2019/12/09 20:51 KOXC 092051Z 21006KT 4SM -RA BR BKN003 OVC055 10/10 A2990 RMK AO2 SLP140
KIJD - Willimantic, Connecticut, USA
Distance from station: E 28mi, 45km
Updated: Mon, 12/09/19 3:36pm EST
Light rain, Mist, Overcast
Light rain, Mist, Overcast
 Wind from SSW
Wind: SSW 8 mph , 13 km/h
Temperature: 54°F , 12°C
Dew Point: 54°F , 12°C
Humidity: 100%
Barometer: 29.92 inHg , 1013.2 hPa
Summary: Light rain, Mist
Clouds: Overcast
Visibility: 2 1/2 miles , 4 km
Cloud details: Overcast 1000 ft
2019/12/09 20:36 KIJD 092036Z AUTO 20007KT 2 1/2SM -RA BR OVC010 12/12 A2992 RMK AO2 P0000 T01170117
 
KHVN - New Haven/Tweed, Connecticut, USA
Distance from station: SSW 30mi, 48km
Updated: Mon, 12/09/19 3:11pm EST
Light rain, Mist, Overcast
Light rain, Mist, Overcast
 Wind from WSW
Wind: WSW 6 mph , 9 km/h
Temperature: 54°F , 12°C
Dew Point: 52°F , 11°C
Humidity: 94%
Barometer: 29.92 inHg , 1013.2 hPa
Summary: Light rain, Mist
Clouds: Overcast
Visibility: 1 mile , 2 km
Cloud details: Overcast 400 ft
2019/12/09 20:11 KHVN 092011Z 24005KT 1SM R02/P6000FT -RA BR OVC004 12/11 A2992 RMK AO2 P0000 T01170106
KBAF - Westfield, Massachusetts, USA
Distance from station: 0 33mi, 54km
Updated: Mon, 12/09/19 3:23pm EST
Light rain, Fog, Overcast
Light rain, Fog, Overcast
 Wind from calm
Wind: Calm
Temperature: 37°F , 3°C
Dew Point: 37°F , 3°C
Humidity: 100%
Barometer: 29.89 inHg , 1012.2 hPa
Summary: Light rain, Fog
Clouds: Overcast
Visibility: 1/4 mile , 0.4 km
Cloud details: Overcast 300 ft
2019/12/09 20:23 KBAF 092023Z 00000KT 1/4SM R20/2400V4000FT -RA FG VV003 03/03 A2989 RMK AO2 RAB03 P0001 T00330028
 
KCEF - Chicopee/Westove, Massachusetts, USA
Distance from station: NNE 37mi, 60km
Updated: Mon, 12/09/19 3:18pm EST
Light rain, Fog, Overcast
Light rain, Fog, Overcast
 Wind from calm
Wind: Calm
Temperature: 39°F , 4°C
Dew Point: 39°F , 4°C
Humidity: 100%
Barometer: 29.88 inHg , 1011.9 hPa
Summary: Light rain, Fog
Clouds: Overcast
Visibility: 1/4 mile , 0.4 km
Cloud details: Overcast 300 ft
2019/12/09 20:18 KCEF 092018Z 00000KT 1/4SM R23/2600V3000FT -RA FG VV003 04/04 A2988 RMK AO2A SLP126
KBDR - Bridgeport, Connecticut, USA
Distance from station: SSW 42mi, 67km
Updated: Mon, 12/09/19 3:14pm EST
Light rain, Fog, Overcast
Light rain, Fog, Overcast
 Wind from SSW
Wind: SSW 5 mph , 7 km/h
Temperature: 48°F , 9°C
Wind Chill: 46°F , 8°C
Dew Point: 48°F , 9°C
Humidity: 100%
Barometer: 29.92 inHg , 1013.2 hPa
Summary: Light rain, Fog
Clouds: Overcast
Visibility: 1/2 mile , 0.8 km
Cloud details: Overcast 400 ft
2019/12/09 20:14 KBDR 092014Z 21004KT 1/2SM -RA FG VV004 09/09 A2992 RMK AO2 RAE02B06 P0000 T00940089
 
KGON - Groton/New Londo, Connecticut, USA
Distance from station: SE 42mi, 68km
Updated: Mon, 12/09/19 3:48pm EST
Light rain, Mist, Overcast
Light rain, Mist, Overcast
 Wind from SSW
Wind: SSW 14 mph , 22 km/h
Temperature: 52°F , 11°C
Dew Point: 52°F , 11°C
Humidity: 100%
Barometer: 29.93 inHg , 1013.5 hPa
Summary: Light rain, Mist
Clouds: Overcast
Visibility: 1 mile , 2 km
Cloud details: Mostly cloudy 400 ft
Overcast 800 ft
2019/12/09 20:48 KGON 092048Z 21012KT 1SM R05/P6000FT -RA BR BKN004 OVC008 11/11 A2993 RMK AO2 P0000 T01060106
KDXR - Danbury, Connecticut, USA
Distance from station: WSW 45mi, 73km
Updated: Mon, 12/09/19 2:53pm EST
Light rain, Mist, Overcast
Light rain, Mist, Overcast
 Wind from SSW
Wind: SSW 8 mph , 13 km/h
Temperature: 52°F , 11°C
Dew Point: 48°F , 9°C
Humidity: 88%
Barometer: 29.92 inHg , 1013.2 hPa
Summary: Light rain, Mist
Clouds: Overcast
Visibility: 5 miles , 8 km
Cloud details: Mostly cloudy 1100 ft
Mostly cloudy 5000 ft
Overcast 7500 ft
2019/12/09 19:53 KDXR 091953Z 21007KT 5SM -RA BR BKN011 BKN050 OVC075 11/09 A2992 RMK AO2 RAB08 SLP133 P0003 T01060094